Terminal Aerodrome Forecast
Issued by NWS Glasgow, MT

Home | Current Version | Previous Version | Text Only | Print | Product List | Glossary On
Versions: 1 2 3 4 5 6 7 8 9 10 11 12 13
695
FTUS45 KGGW 241120
TAFGGW
TAF
KGGW 241120Z 2412/2512 VRB04KT P6SM BKN035
     FM242000 12005KT P6SM SCT035
     FM250100 VRB04KT P6SM SCT050=

USA.gov is the U.S. government's official web portal to all federal, state and local government web resources and services.